METAR Data
IDs: Format: Raw Decoded Include TAF

Data at: 1405 UTC 20 Oct 2021

KGOO 201355Z AUTO 13007KT 10SM OVC029 09/03 A3008 RMK A01
KGOO 201335Z AUTO 14007G13KT 10SM OVC029 09/03 A3008 RMK A01
KGOO 201310Z AUTO 13007KT 6SM HZ FEW018 SCT023 OVC031 08/04 A3007 RMK A01
KGOO 201255Z AUTO 14008G16KT 110V180 10SM SCT019 BKN025 OVC032 08/03 A3007 RMK A01
KGOO 201235Z AUTO 16007G15KT 140V200 10SM FEW020 SCT026 OVC033 08/03 A3007 RMK A01
KGOO 201215Z AUTO VRB06G16KT 10SM FEW020 SCT025 BKN034 08/03 A3005 RMK A01
KGOO 201155Z AUTO 16007G17KT 120V210 10SM FEW029 BKN034 OVC041 08/03 A3005 RMK A01
KGOO 201135Z AUTO VRB03KT 10SM FEW028 SCT035 OVC044 08/03 A3004 RMK A01
KGOO 201115Z AUTO 00000KT 10SM FEW034 OVC045 09/02 A3005 RMK A01
KGOO 201055Z AUTO VRB04KT 10SM FEW034 OVC047 09/02 A3004 RMK A01
KGOO 201035Z AUTO VRB04G10KT 10SM OVC050 10/01 A3004 RMK A01
KGOO 201015Z AUTO VRB05KT 10SM BKN050 OVC055 10/00 A3004 RMK A01
KGOO 200955Z AUTO VRB04G10KT 10SM BKN050 OVC060 10/00 A3004 RMK A01
KGOO 200935Z AUTO VRB04KT 10SM OVC065 10/M00 A3004 RMK A01
KGOO 200915Z AUTO 14006KT 10SM FEW055 OVC070 10/M00 A3003 RMK A01
KGOO 200855Z AUTO VRB04G12KT 10SM OVC070 11/M00 A3004 RMK A01
KGOO 200835Z AUTO 16008KT 120V180 10SM BKN070 OVC075 11/M00 A3002 RMK A01
KGOO 200815Z AUTO VRB06G14KT 10SM OVC075 11/M00 A3002 RMK A01
KGOO 200755Z AUTO VRB07KT 10SM FEW055 FEW065 OVC075 11/M01 A3002 RMK A01
KGOO 200735Z AUTO VRB06G11KT 10SM SCT065 OVC075 11/M01 A3002 RMK A01
KGOO 200715Z AUTO VRB05G12KT 10SM BKN065 BKN075 OVC085 11/M01 A3000 RMK A01
KGOO 200655Z AUTO VRB06G12KT 10SM OVC080 11/M01 A2998 RMK A01
KGOO 200635Z AUTO 14006G14KT 10SM FEW055 BKN085 OVC110 11/M01 A2997 RMK A01
KGOO 200615Z AUTO 15007KT 110V180 10SM FEW055 BKN070 OVC075 11/M01 A2998 RMK A01
KGOO 200555Z AUTO 00000KT 10SM OVC075 11/00 A3000 RMK A01
KGOO 200535Z AUTO VRB04G10KT 10SM BKN075 OVC090 11/00 A2999 RMK A01
KGOO 200510Z AUTO VRB04KT 10SM FEW075 OVC090 11/01 A2998 RMK A01
KGOO 200455Z AUTO 00000G14KT 10SM SCT075 OVC095 11/01 A2996 RMK A01
KGOO 200435Z AUTO 13008G17KT 10SM SCT100 BKN120 10/02 A2994 RMK A01
KGOO 200415Z AUTO 12011G19KT 10SM SCT110 10/02 A2994 RMK A01
KGOO 200355Z AUTO 13010G15KT 10SM CLR 10/02 A2994 RMK A01
KGOO 200335Z AUTO 12008KT 10SM CLR 10/02 A2995 RMK A01
KGOO 200315Z AUTO 13008KT 10SM FEW026 FEW031 10/02 A2997 RMK A01
KGOO 200255Z AUTO VRB05KT 10SM SCT027 SCT031 09/02 A2998 RMK A01
KGOO 200235Z AUTO 00000KT 10SM FEW029 FEW035 09/03 A2998 RMK A01
KGOO 200215Z AUTO 00000KT 10SM FEW030 FEW036 09/03 A2997 RMK A01
KGOO 200155Z AUTO 00000KT 10SM CLR 09/03 A2996 RMK A01
KGOO 200135Z AUTO 14003KT 10SM CLR 10/02 A2995 RMK A01
KGOO 200110Z AUTO 00000KT 10SM CLR 10/02 A2995 RMK A01
KGOO 200055Z AUTO 00000KT 10SM CLR 11/02 A2996 RMK A01
KGOO 200035Z AUTO 00000KT 10SM CLR 12/02 A2995 RMK A01
KGOO 200015Z AUTO 00000KT 10SM CLR 13/03 A2995 RMK A01
KGOO 192355Z AUTO 00000KT 10SM CLR 13/02 A2996 RMK A01
KGOO 192335Z AUTO 00000KT 10SM CLR 13/02 A2997 RMK A01
KGOO 192315Z AUTO 00000KT 10SM CLR 13/02 A2997 RMK A01
KGOO 192255Z AUTO VRB03KT 10SM CLR 14/02 A2998 RMK A01
KGOO 192235Z AUTO 00000KT 10SM CLR 14/01 A2999 RMK A01
KGOO 192215Z AUTO 00000KT 10SM CLR 14/01 A2998 RMK A01
KGOO 192155Z AUTO VRB06G11KT 10SM CLR 15/01 A2998 RMK A01
KGOO 192135Z AUTO VRB05G11KT 10SM CLR 15/01 A2998 RMK A01
KGOO 192115Z AUTO VRB06G12KT 10SM CLR 16/02 A2999 RMK A01
KGOO 192055Z AUTO VRB04G10KT 10SM CLR 14/02 A2999 RMK A01
KGOO 192035Z AUTO VRB05KT 10SM CLR 15/03 A3000 RMK A01
KGOO 192015Z AUTO VRB04KT 10SM CLR 14/03 A3000 RMK A01
KGOO 191955Z AUTO 22007KT 10SM CLR 14/03 A3001 RMK A01
KGOO 191935Z AUTO VRB06KT 10SM CLR 13/03 A3002 RMK A01
KGOO 191910Z AUTO VRB05G10KT 10SM CLR 12/03 A3002 RMK A01
KGOO 191855Z AUTO VRB06KT 10SM CLR 13/03 A3003 RMK A01
KGOO 191835Z AUTO VRB05KT 10SM CLR 13/03 A3003 RMK A01
KGOO 191810Z AUTO 13006G13KT 10SM CLR 12/03 A3004 RMK A01
KGOO 191755Z AUTO VRB04G11KT 10SM CLR 13/03 A3004 RMK A01
KGOO 191730Z AUTO VRB05KT 10SM CLR 12/03 A3005 RMK A01
KGOO 191715Z AUTO 00000KT 10SM CLR 11/03 A3004 RMK A01
KGOO 191655Z AUTO VRB04KT 10SM CLR 11/04 A3004 RMK A01
KGOO 191635Z AUTO VRB06KT 10SM CLR 10/03 A3003 RMK A01
KGOO 191615Z AUTO 14004KT 10SM CLR 09/03 A3003 RMK A01
KGOO 191555Z AUTO VRB05KT 10SM CLR 09/02 A3002 RMK A01
KGOO 191535Z AUTO 12005KT 10SM CLR 08/02 A3001 RMK A01
KGOO 191515Z AUTO 11007KT 10SM CLR 08/01 A3001 RMK A01
KGOO 191455Z AUTO 11006KT 10SM CLR 07/01 A3000 RMK A01
KGOO 191435Z AUTO 11006KT 10SM CLR 06/01 A3000 RMK A01
KGOO 191415Z AUTO 10006KT 10SM CLR 06/01 A3000 RMK A01
KGOO 191355Z AUTO 10006KT 10SM CLR 06/01 A3000 RMK A01
KGOO 191335Z AUTO 10006KT 10SM CLR 06/01 A2999 RMK A01
KGOO 191315Z AUTO 10006KT 10SM CLR 06/01 A3000 RMK A01
KGOO 191255Z AUTO 10005KT 10SM CLR 06/01 A3000 RMK A01
KGOO 191235Z AUTO 11004KT 10SM CLR 06/01 A3000 RMK A01
KGOO 191215Z AUTO 10005KT 10SM CLR 06/01 A3000 RMK A01
KGOO 191155Z AUTO 10005KT 10SM CLR 05/02 A2999 RMK A01
KGOO 191135Z AUTO 11004KT 10SM CLR 06/02 A3000 RMK A01
KGOO 191115Z AUTO 11005KT 10SM CLR 06/02 A2999 RMK A01
KGOO 191055Z AUTO 11003KT 10SM CLR 06/02 A2999 RMK A01
KGOO 191035Z AUTO 10004KT 10SM CLR 05/02 A3000 RMK A01
KGOO 191015Z AUTO 11005KT 10SM CLR 06/02 A3001 RMK A01
KGOO 190955Z AUTO 11004KT 10SM CLR 06/02 A3001 RMK A01
KGOO 190935Z AUTO 11003KT 10SM CLR 06/02 A3002 RMK A01
KGOO 190915Z AUTO 00000KT 10SM CLR 05/02 A3002 RMK A01
KGOO 190855Z AUTO 00000KT 10SM CLR 05/02 A3002 RMK A01
KGOO 190835Z AUTO 00000KT 10SM CLR 05/02 A3001 RMK A01
KGOO 190815Z AUTO 00000KT 10SM CLR 05/02 A3002 RMK A01
KGOO 190755Z AUTO 00000KT 10SM CLR 05/02 A3001 RMK A01
KGOO 190735Z AUTO 00000KT 10SM CLR 05/02 A3002 RMK A01
KGOO 190715Z AUTO 00000KT 10SM CLR 05/02 A3002 RMK A01
KGOO 190650Z AUTO 00000KT 10SM CLR 05/02 A3002 RMK A01
KGOO 190635Z AUTO 00000KT 10SM CLR 05/03 A3002 RMK A01
KGOO 190615Z AUTO 00000KT 10SM CLR 05/03 A3002 RMK A01
KGOO 190555Z AUTO 00000KT 10SM CLR 05/03 A3002 RMK A01
KGOO 190535Z AUTO 00000KT 10SM CLR 05/03 A3002 RMK A01
KGOO 190515Z AUTO 00000KT 10SM CLR 05/03 A3002 RMK A01
KGOO 190455Z AUTO 00000KT 10SM CLR 05/03 A3002 RMK A01
KGOO 190430Z AUTO 00000KT 10SM CLR 05/03 A3001 RMK A01
KGOO 190415Z AUTO 00000KT 10SM CLR 05/03 A3001 RMK A01
KGOO 190355Z AUTO 05004KT 10SM CLR 05/03 A3001 RMK A01
KGOO 190335Z AUTO 04004KT 10SM CLR 06/04 A3001 RMK A01
KGOO 190315Z AUTO 05004KT 10SM CLR 06/04 A3001 RMK A01
KGOO 190255Z AUTO 04003KT 10SM CLR 06/04 A3002 RMK A01
KGOO 190235Z AUTO 05004KT 10SM CLR 06/04 A3001 RMK A01
KGOO 190210Z AUTO 00000KT 10SM CLR 06/05 A3002 RMK A01